Terminal Aerodrome Forecast
Issued by NWS Fort Wayne, IN

Home | Current Version | Previous Version | Graphics & Text | Print | Product List | Glossary On
Versions: 1 2 3 4 5 6 7 8 9 10 11 12 13 14 15 16 17 18 19
000
FTUS43 KIWX 161100
TAFFWA
TAF
KFWA 161133Z 1612/1712 09009KT P6SM SCT050 OVC100
      TEMPO 1612/1614 6SM -SHRA OVC050
     FM161400 13008KT P6SM VCSH OVC020
     FM162000 21006KT 6SM BR BKN020
     FM170800 30004KT P6SM SCT030=

USA.gov is the U.S. government's official web portal to all federal, state and local government web resources and services.